Freedom, NH (03836)

2:07 PM EDT on August 29, 2014 (GMT -0400)
HADS OSSIPEE RIVER AT EFFINGHAM FALLS NEAR ENHDES | Change Station
CLOSE
Current Station
Personal Weather Station
Location: Freedom, NH
Elevation: 439 ft
Nearby Weather Stations

Elev 439 ft 43.80 °N, 71.06 °W | Updated 52 minutes ago

Clear
Clear
72.0 °F
Feels Like 72.0 °F
N
-
Wind Variable Wind from North

Today
High -- | Low -- °F
--% Chance of Precip.
Yesterday
High -- | Low -- °F
Precip. -- in
6:04 AM 7:25 PM
Waxing Crescent, 15% visible
Pressure 30.19 in
Visibility 10.0 miles
Clouds Clear
Dew Point Not available.
Humidity Not available.
Rainfall -999.00 in
Snow Depth Not available.
UV 8 out of 12
Pollen 8.30 out of 12
Ozone Good
Flu Activity Not available.
METAR KIZG 291754Z AUTO 14006KT 10SM CLR 24/07 A3019 RMK AO2 SLP224 T02390072 10239 20150 52003

More Conditions Fewer Conditions

Pressure 30.19 in
Visibility 10.0 miles
Clouds Clear
Dew Point Not available.
Humidity Not available.
Rainfall -999.00 in
Snow Depth Not available.
UV 8 out of 12
Pollen 8.30 out of 12
Ozone Good
Flu Activity Not available.
METAR KIZG 291754Z AUTO 14006KT 10SM CLR 24/07 A3019 RMK AO2 SLP224 T02390072 10239 20150 52003

More Conditions Fewer Conditions

10-Day Weather Forecast

Almanac

Astronomy

Aug. 29, 2014 Rise Set
Actual Time 6:04 AM EDT 7:25 PM EDT
Civil Twilight 5:34 AM EDT 7:55 PM EDT
Nautical Twilight 4:58 AM EDT 8:30 PM EDT
Astronomical Twilight 4:20 AM EDT 9:08 PM EDT
Moon 9:59 AM EDT 9:11 PM EDT
Length of Visible Light 14h 20m
Length of Day
13h 20m
Tomorrow will be 2m 53s shorter.
Waxing Crescent, 15% of the Moon is Illuminated
Today
Waxing Crescent
Sep 2
First Quarter
Sep 8
Full
Sep 15
Last Quarter
Sep 24
New

Today's Extremes

State Highs State Lows

Community

WunderPhotos

Upload Photos

1,748,307 photos uploaded!

Nearby

Air Quality

  Air Quality AQ Index Pollutant
Yesterday Good
OZONE
Current Good
OZONE
Friday Good
PM2.5
Friday Good
OZONE
Saturday Good
PM2.5
Saturday Good
OZONE
Sunday Good
PM2.5
Sunday Good
OZONE
Monday Good
PM2.5
Monday Good
OZONE

Snow Depth

Station Depth Elevation
No new snow has been reported.

Earthquake Activity

City Distance Mag. Time & Date
No recent earthquake activity has been reported nearby.
Minimum magnitude displayed is 2.5.

Coastal Water Temperatures

Place Temperature
No Stations Reporting

Nearby Weather Stations